Time;durP1;ratioP1;P1;durP2;ratioP2;P2;SDS_P1;SDS_P2;PMS_P1;PMS_P2;Temp;Humidity;BMP_temperature;BMP_pressure;BME280_temperature;BME280_humidity;BME280_pressure;Samples;Min_cycle;Max_cycle;Signal;HPM_P1;HPM_P2
2021/10/25 00:00:11;;;;;;;9.05;8.15;;;;;;;;;;5054642;28;20029;-59
2021/10/25 00:02:37;;;;;;;10.25;7.53;;;;;;;;;;5054826;28;20029;-59
2021/10/25 00:05:03;;;;;;;10.55;8.45;;;;;;;;;;5054785;28;20032;-59
2021/10/25 00:07:29;;;;;;;12.00;7.90;;;;;;;;;;5053934;28;20083;-59
2021/10/25 00:09:55;;;;;;;10.05;7.60;;;;;;;;;;5054672;28;20025;-59
2021/10/25 00:12:21;;;;;;;8.73;7.63;;;;;;;;;;5054579;28;20036;-59
2021/10/25 00:14:47;;;;;;;13.23;8.20;;;;;;;;;;5054344;28;20079;-59
2021/10/25 00:17:13;;;;;;;8.15;6.78;;;;;;;;;;5053903;28;20029;-59
2021/10/25 00:19:39;;;;;;;8.82;7.88;;;;;;;;;;5054647;28;20037;-59
2021/10/25 00:22:05;;;;;;;11.75;8.65;;;;;;;;;;5054697;28;20458;-59
2021/10/25 00:24:31;;;;;;;7.32;6.57;;;;;;;;;;5054424;28;20040;-59
2021/10/25 00:26:57;;;;;;;8.70;7.35;;;;;;;;;;5053414;28;20037;-59
2021/10/25 00:29:23;;;;;;;8.05;7.25;;;;;;;;;;5054130;28;20432;-59
2021/10/25 00:31:49;;;;;;;8.65;7.60;;;;;;;;;;5054496;28;20086;-59
2021/10/25 00:34:15;;;;;;;10.43;7.50;;;;;;;;;;5054222;28;20025;-59
2021/10/25 00:36:41;;;;;;;9.57;8.30;;;;;;;;;;5052908;28;20509;-59
2021/10/25 00:39:07;;;;;;;11.18;8.38;;;;;;;;;;5054157;28;20060;-59
2021/10/25 00:41:33;;;;;;;10.50;8.38;;;;;;;;;;5054120;28;20021;-59
2021/10/25 00:43:59;;;;;;;12.55;8.63;;;;;;;;;;5053716;28;20021;-59
2021/10/25 00:46:25;;;;;;;8.63;7.65;;;;;;;;;;5053718;28;20036;-59
2021/10/25 00:48:51;;;;;;;10.40;8.15;;;;;;;;;;5053853;28;20463;-59
2021/10/25 00:51:17;;;;;;;10.93;8.63;;;;;;;;;;5053991;28;20029;-59
2021/10/25 00:53:43;;;;;;;13.02;8.43;;;;;;;;;;5053783;28;20525;-59
2021/10/25 00:56:10;;;;;;;11.30;8.70;;;;;;;;;;5053182;28;20021;-59
2021/10/25 00:58:37;;;;;;;10.50;7.30;;;;;;;;;;5053117;28;20423;-59
2021/10/25 01:01:03;;;;;;;9.82;7.70;;;;;;;;;;5053885;28;20032;-59
2021/10/25 01:03:29;;;;;;;10.43;8.15;;;;;;;;;;5053771;28;20448;-59
2021/10/25 01:05:56;;;;;;;10.52;8.25;;;;;;;;;;5053880;28;20025;-59
2021/10/25 01:08:22;;;;;;;9.55;8.10;;;;;;;;;;5053046;28;20116;-59
2021/10/25 01:10:48;;;;;;;14.02;7.32;;;;;;;;;;5053583;28;20029;-59
2021/10/25 01:13:15;;;;;;;9.00;6.95;;;;;;;;;;5053152;28;20426;-59
2021/10/25 01:15:41;;;;;;;8.45;7.40;;;;;;;;;;5053488;28;20021;-59
2021/10/25 01:18:07;;;;;;;9.07;7.38;;;;;;;;;;5052921;28;20309;-59
2021/10/25 01:20:33;;;;;;;10.02;8.00;;;;;;;;;;5053378;28;20056;-59
2021/10/25 01:23:02;;;;;;;20.05;8.88;;;;;;;;;;5053667;28;20463;-59
2021/10/25 01:25:29;;;;;;;8.07;7.20;;;;;;;;;;5053169;28;20032;-59
2021/10/25 01:27:56;;;;;;;9.70;7.72;;;;;;;;;;5052293;28;20106;-59
2021/10/25 01:30:22;;;;;;;9.02;7.18;;;;;;;;;;5053116;28;20108;-59
2021/10/25 01:32:49;;;;;;;10.75;8.38;;;;;;;;;;5053290;28;20102;-59
2021/10/25 01:35:15;;;;;;;8.40;7.47;;;;;;;;;;5053002;28;20016;-59
2021/10/25 01:37:41;;;;;;;9.13;7.15;;;;;;;;;;5052344;28;20040;-59
2021/10/25 01:40:11;;;;;;;7.97;6.53;;;;;;;;;;5052899;28;20029;-59
2021/10/25 01:42:37;;;;;;;10.20;8.20;;;;;;;;;;5053143;28;20040;-59
2021/10/25 01:45:04;;;;;;;10.38;7.43;;;;;;;;;;5052782;28;20053;-58
2021/10/25 01:47:30;;;;;;;8.93;7.32;;;;;;;;;;5051674;28;20045;-59
2021/10/25 01:49:56;;;;;;;10.77;8.05;;;;;;;;;;5052716;28;20378;-59
2021/10/25 01:52:23;;;;;;;9.10;8.18;;;;;;;;;;5052784;28;20055;-59
2021/10/25 01:54:49;;;;;;;11.30;7.50;;;;;;;;;;5052541;28;20017;-59
2021/10/25 01:57:15;;;;;;;8.88;7.35;;;;;;;;;;5051917;28;20025;-59
2021/10/25 01:59:41;;;;;;;10.43;8.63;;;;;;;;;;5052714;28;20040;-59
2021/10/25 02:02:07;;;;;;;14.43;8.45;;;;;;;;;;5052611;28;20052;-59
2021/10/25 02:04:34;;;;;;;7.18;6.43;;;;;;;;;;5052650;28;20477;-59
2021/10/25 02:07:00;;;;;;;11.93;8.15;;;;;;;;;;5051836;28;20064;-59
2021/10/25 02:09:26;;;;;;;10.82;8.07;;;;;;;;;;5052419;28;20112;-59
2021/10/25 02:11:52;;;;;;;12.05;9.05;;;;;;;;;;5052916;28;20167;-59
2021/10/25 02:14:18;;;;;;;9.38;8.30;;;;;;;;;;5052606;28;20424;-59
2021/10/25 02:16:44;;;;;;;10.55;8.50;;;;;;;;;;5051396;28;20494;-59
2021/10/25 02:19:11;;;;;;;10.23;7.70;;;;;;;;;;5052375;28;20112;-59
2021/10/25 02:21:37;;;;;;;11.38;8.15;;;;;;;;;;5052348;28;20561;-59
2021/10/25 02:24:03;;;;;;;15.15;8.95;;;;;;;;;;5052191;28;20029;-59
2021/10/25 02:26:30;;;;;;;7.97;7.15;;;;;;;;;;5051479;28;20451;-59
2021/10/25 02:28:56;;;;;;;9.65;8.50;;;;;;;;;;5051963;28;20056;-59
2021/10/25 02:31:22;;;;;;;14.75;7.68;;;;;;;;;;5052174;28;20047;-59
2021/10/25 02:33:48;;;;;;;9.55;8.13;;;;;;;;;;5052189;28;20021;-59
2021/10/25 02:36:14;;;;;;;10.77;8.77;;;;;;;;;;5051721;28;20459;-59
2021/10/25 02:38:40;;;;;;;10.20;9.00;;;;;;;;;;5051904;28;20040;-59
2021/10/25 02:41:07;;;;;;;10.27;9.10;;;;;;;;;;5052229;28;20036;-59
2021/10/25 02:43:34;;;;;;;10.80;9.02;;;;;;;;;;5052271;28;20036;-59
2021/10/25 02:46:00;;;;;;;15.02;9.05;;;;;;;;;;5051869;28;20025;-59
2021/10/25 02:48:27;;;;;;;13.75;10.20;;;;;;;;;;5051465;28;20033;-59
2021/10/25 02:50:53;;;;;;;10.38;8.50;;;;;;;;;;5051961;28;20542;-59
2021/10/25 02:53:20;;;;;;;11.25;8.95;;;;;;;;;;5051890;28;20037;-59
2021/10/25 02:55:47;;;;;;;11.15;9.40;;;;;;;;;;5051999;28;20083;-59
2021/10/25 02:58:13;;;;;;;11.05;9.60;;;;;;;;;;5051352;28;20037;-59
2021/10/25 03:00:39;;;;;;;10.85;9.57;;;;;;;;;;5055180;28;20036;-59
2021/10/25 03:03:05;;;;;;;11.85;8.95;;;;;;;;;;5055822;28;20089;-59
2021/10/25 03:05:31;;;;;;;11.63;8.50;;;;;;;;;;5055912;28;20025;-59
2021/10/25 03:07:57;;;;;;;10.18;9.10;;;;;;;;;;5054904;28;20084;-59
2021/10/25 03:10:23;;;;;;;16.75;9.52;;;;;;;;;;5056003;28;20025;-59
2021/10/25 03:12:49;;;;;;;11.88;10.20;;;;;;;;;;5055838;28;20027;-59
2021/10/25 03:15:16;;;;;;;10.25;8.52;;;;;;;;;;5055794;28;20060;-59
2021/10/25 03:17:44;;;;;;;9.90;8.45;;;;;;;;;;5054690;28;20044;-59
2021/10/25 03:20:11;;;;;;;9.82;8.82;;;;;;;;;;5055610;28;20505;-59
2021/10/25 03:22:37;;;;;;;9.38;7.75;;;;;;;;;;5055759;28;20378;-59
2021/10/25 03:25:03;;;;;;;11.55;8.20;;;;;;;;;;5055627;28;20033;-59
2021/10/25 03:27:29;;;;;;;10.98;9.18;;;;;;;;;;5054992;28;20063;-59
2021/10/25 03:29:55;;;;;;;14.05;9.30;;;;;;;;;;5055623;28;20021;-59
2021/10/25 03:32:21;;;;;;;11.15;8.82;;;;;;;;;;5049228;28;20071;-59
2021/10/25 03:34:48;;;;;;;9.20;8.00;;;;;;;;;;5055230;28;20104;-59
2021/10/25 03:37:14;;;;;;;9.88;8.43;;;;;;;;;;5054905;28;20040;-59
2021/10/25 03:39:42;;;;;;;10.32;8.85;;;;;;;;;;5055445;28;20090;-59
2021/10/25 03:42:21;;;;;;;8.98;8.18;;;;;;;;;;5055163;28;20040;-59
2021/10/25 03:44:51;;;;;;;9.00;8.10;;;;;;;;;;5055393;28;20033;-58
2021/10/25 03:47:31;;;;;;;9.55;8.05;;;;;;;;;;5054133;28;20033;-59
2021/10/25 03:50:20;;;;;;;9.43;8.18;;;;;;;;;;5055459;28;20060;-59
2021/10/25 03:55:16;;;;;;;10.70;7.88;;;;;;;;;;5054887;28;20379;-59
2021/10/25 04:30:13;;;;;;;9.38;7.85;;;;;;;;;;5054454;28;20036;-58
2021/10/25 04:32:39;;;;;;;7.55;6.25;;;;;;;;;;5054333;28;20086;-58
2021/10/25 04:35:06;;;;;;;9.77;7.50;;;;;;;;;;5054135;28;20459;-58
2021/10/25 04:37:31;;;;;;;11.48;7.57;;;;;;;;;;5053503;28;20129;-59
2021/10/25 04:39:58;;;;;;;10.33;8.43;;;;;;;;;;5054455;28;20068;-59
2021/10/25 04:42:24;;;;;;;10.32;7.68;;;;;;;;;;5053994;28;20074;-58
2021/10/25 04:44:50;;;;;;;11.93;8.63;;;;;;;;;;5054460;28;20033;-59
2021/10/25 04:47:16;;;;;;;9.35;7.75;;;;;;;;;;5053256;28;20147;-59
2021/10/25 04:49:42;;;;;;;9.45;8.13;;;;;;;;;;5053823;28;20100;-59
2021/10/25 04:52:10;;;;;;;13.65;9.25;;;;;;;;;;5054094;28;20028;-59
2021/10/25 04:54:36;;;;;;;9.35;8.38;;;;;;;;;;5053831;28;20036;-59
2021/10/25 04:57:02;;;;;;;10.30;8.80;;;;;;;;;;5053229;28;20028;-59
2021/10/25 04:59:28;;;;;;;12.18;7.93;;;;;;;;;;5053811;28;20029;-59
2021/10/25 05:01:55;;;;;;;9.60;7.32;;;;;;;;;;5053508;28;20082;-59
2021/10/25 05:04:21;;;;;;;10.53;8.10;;;;;;;;;;5053280;28;20514;-51
2021/10/25 05:06:48;;;;;;;9.82;7.78;;;;;;;;;;5052935;28;20045;-56
2021/10/25 05:09:14;;;;;;;13.27;9.70;;;;;;;;;;5053577;28;20083;-56
2021/10/25 05:11:40;;;;;;;11.20;7.65;;;;;;;;;;5053982;28;20033;-55
2021/10/25 05:14:07;;;;;;;9.50;8.50;;;;;;;;;;5046488;28;20056;-57
2021/10/25 05:16:33;;;;;;;12.43;8.20;;;;;;;;;;5041523;28;20125;-56
2021/10/25 05:18:59;;;;;;;9.05;7.55;;;;;;;;;;5046283;28;20095;-57
2021/10/25 05:21:25;;;;;;;8.43;7.53;;;;;;;;;;5037432;28;20399;-57
2021/10/25 05:23:51;;;;;;;10.77;8.73;;;;;;;;;;5040911;28;20037;-54
2021/10/25 05:26:17;;;;;;;10.15;9.05;;;;;;;;;;5035630;28;20028;-57
2021/10/25 05:28:43;;;;;;;9.83;8.30;;;;;;;;;;5051951;28;20033;-57
2021/10/25 05:31:12;;;;;;;8.73;7.65;;;;;;;;;;5037330;28;20032;-57
2021/10/25 05:33:39;;;;;;;14.23;11.43;;;;;;;;;;5046137;28;20028;-55
2021/10/25 05:36:05;;;;;;;11.75;9.65;;;;;;;;;;5052064;28;20398;-57
2021/10/25 05:38:31;;;;;;;8.00;7.20;;;;;;;;;;5049169;28;20425;-54
2021/10/25 05:40:57;;;;;;;9.40;8.23;;;;;;;;;;5052612;28;20033;-56
2021/10/25 05:43:23;;;;;;;9.82;8.10;;;;;;;;;;5053027;28;20025;-54
2021/10/25 05:45:49;;;;;;;10.13;8.07;;;;;;;;;;5051776;28;20040;-57
2021/10/25 05:48:15;;;;;;;9.68;7.15;;;;;;;;;;5052311;28;20033;-56
2021/10/25 05:50:43;;;;;;;7.30;6.28;;;;;;;;;;5051569;28;20039;-55
2021/10/25 05:53:09;;;;;;;11.90;9.80;;;;;;;;;;5052338;28;20470;-55
2021/10/25 05:55:37;;;;;;;10.05;8.63;;;;;;;;;;5053453;28;20055;-57
2021/10/25 05:58:05;;;;;;;11.50;8.50;;;;;;;;;;5061188;28;20116;-57
2021/10/25 06:00:37;;;;;;;12.40;8.87;;;;;;;;;;5050581;28;20098;-57
2021/10/25 06:03:03;;;;;;;10.57;9.50;;;;;;;;;;5052395;28;20394;-55
2021/10/25 06:05:32;;;;;;;10.40;8.77;;;;;;;;;;5052404;28;20031;-55
2021/10/25 06:08:00;;;;;;;8.33;7.47;;;;;;;;;;5051697;28;20386;-58
2021/10/25 06:10:32;;;;;;;9.02;7.80;;;;;;;;;;5052242;28;20017;-57
2021/10/25 06:13:03;;;;;;;8.70;7.67;;;;;;;;;;5052132;28;20036;-57
2021/10/25 06:15:40;;;;;;;9.50;7.80;;;;;;;;;;5052174;28;20083;-57
2021/10/25 06:18:09;;;;;;;10.73;8.18;;;;;;;;;;5055140;28;20096;-58
2021/10/25 06:20:39;;;;;;;9.73;8.52;;;;;;;;;;5057743;28;20083;-58
2021/10/25 06:23:12;;;;;;;9.00;7.78;;;;;;;;;;5052216;28;20108;-57
2021/10/25 06:25:38;;;;;;;9.77;7.68;;;;;;;;;;5051817;28;20029;-58
2021/10/25 06:28:05;;;;;;;11.93;9.27;;;;;;;;;;5051183;28;20033;-58
2021/10/25 06:30:31;;;;;;;9.57;7.38;;;;;;;;;;5051706;28;20108;-58
2021/10/25 06:32:58;;;;;;;8.73;7.00;;;;;;;;;;5052315;28;20074;-58
2021/10/25 06:35:26;;;;;;;12.93;10.05;;;;;;;;;;5061789;28;20025;-55
2021/10/25 06:38:00;;;;;;;9.52;7.90;;;;;;;;;;5052716;28;20429;-56
2021/10/25 06:40:27;;;;;;;13.23;8.85;;;;;;;;;;5052647;28;20039;-53
2021/10/25 06:42:54;;;;;;;7.78;6.97;;;;;;;;;;5050905;28;20076;-57
2021/10/25 06:45:21;;;;;;;11.73;8.50;;;;;;;;;;5051768;28;20039;-56
2021/10/25 06:47:48;;;;;;;11.70;9.40;;;;;;;;;;5051546;28;20040;-57
2021/10/25 06:50:15;;;;;;;13.35;9.18;;;;;;;;;;5050803;28;20116;-56
2021/10/25 06:52:42;;;;;;;12.73;8.68;;;;;;;;;;5060891;28;20042;-55
2021/10/25 06:55:08;;;;;;;11.25;8.73;;;;;;;;;;5060259;28;20104;-54
2021/10/25 06:57:34;;;;;;;9.75;8.20;;;;;;;;;;5053640;28;20024;-56
2021/10/25 07:00:00;;;;;;;11.07;9.15;;;;;;;;;;5051231;28;20036;-57
2021/10/25 07:02:27;;;;;;;11.80;8.00;;;;;;;;;;5052272;28;20032;-57
2021/10/25 07:04:53;;;;;;;15.45;9.05;;;;;;;;;;5054256;28;20075;-57
2021/10/25 07:07:23;;;;;;;9.57;8.57;;;;;;;;;;5048732;28;20394;-55
2021/10/25 07:09:49;;;;;;;12.13;10.38;;;;;;;;;;5051130;28;20029;-56
2021/10/25 07:12:15;;;;;;;34.10;13.55;;;;;;;;;;5059241;28;20028;-57
2021/10/25 07:14:42;;;;;;;25.48;12.65;;;;;;;;;;5051295;28;20045;-55
2021/10/25 07:59:31;;;;;;;12.63;9.95;;;;;;;;;;5052242;28;20509;-54
2021/10/25 08:03:08;;;;;;;10.02;8.48;;;;;;;;;;5053462;28;20033;-56
2021/10/25 08:05:41;;;;;;;10.27;7.40;;;;;;;;;;5053382;28;20056;-55
2021/10/25 08:10:40;;;;;;;10.82;8.48;;;;;;;;;;5054014;28;20099;-57
2021/10/25 08:13:17;;;;;;;9.15;7.45;;;;;;;;;;5052754;28;20112;-56
2021/10/25 08:15:46;;;;;;;9.50;8.13;;;;;;;;;;5043272;28;20378;-57
2021/10/25 08:20:51;;;;;;;10.57;7.50;;;;;;;;;;5053533;28;20041;-57
2021/10/25 08:23:17;;;;;;;9.85;7.80;;;;;;;;;;5053254;28;20033;-57
2021/10/25 08:25:43;;;;;;;9.65;7.07;;;;;;;;;;5054173;28;20037;-57
2021/10/25 08:28:10;;;;;;;11.85;8.27;;;;;;;;;;5051186;28;20041;-57
2021/10/25 08:30:36;;;;;;;9.02;6.78;;;;;;;;;;5053487;28;20466;-57
2021/10/25 08:33:48;;;;;;;9.50;7.82;;;;;;;;;;5053305;28;20041;-56
2021/10/25 08:35:56;;;;;;;8.70;7.47;;;;;;;;;;5049071;28;20106;-57
2021/10/25 08:41:06;;;;;;;9.65;7.78;;;;;;;;;;5053489;28;20056;-57
2021/10/25 08:43:33;;;;;;;10.10;7.05;;;;;;;;;;5053964;28;20034;-56
2021/10/25 08:46:03;;;;;;;9.15;6.97;;;;;;;;;;5053548;28;20040;-57
2021/10/25 08:48:30;;;;;;;10.68;8.18;;;;;;;;;;5052539;28;20044;-57
2021/10/25 08:50:56;;;;;;;11.82;9.55;;;;;;;;;;5051821;28;20036;-56
2021/10/25 08:53:23;;;;;;;10.98;8.13;;;;;;;;;;5053300;28;20108;-57
2021/10/25 08:55:51;;;;;;;14.50;8.63;;;;;;;;;;5053134;28;20067;-56
2021/10/25 08:58:17;;;;;;;11.40;8.50;;;;;;;;;;5051914;28;20471;-57
2021/10/25 09:00:45;;;;;;;8.60;7.75;;;;;;;;;;5054097;28;20029;-57
2021/10/25 09:03:12;;;;;;;12.20;8.15;;;;;;;;;;5053579;28;20029;-56
2021/10/25 09:05:39;;;;;;;11.05;8.98;;;;;;;;;;5052028;28;20116;-57
2021/10/25 09:08:10;;;;;;;10.20;8.00;;;;;;;;;;5052551;28;20077;-57
2021/10/25 09:10:36;;;;;;;9.85;7.47;;;;;;;;;;5053486;28;20379;-57
2021/10/25 09:13:07;;;;;;;11.52;7.50;;;;;;;;;;5053102;28;20057;-57
2021/10/25 09:15:34;;;;;;;11.68;8.38;;;;;;;;;;5050432;28;20101;-57
2021/10/25 09:18:07;;;;;;;11.60;8.30;;;;;;;;;;5050839;28;20040;-57
2021/10/25 09:20:41;;;;;;;7.50;6.60;;;;;;;;;;5052516;28;20111;-56
2021/10/25 09:23:09;;;;;;;13.95;9.63;;;;;;;;;;5053223;28;20448;-56
2021/10/25 09:25:36;;;;;;;45.67;16.65;;;;;;;;;;5051370;28;20033;-57
2021/10/25 09:28:08;;;;;;;10.90;8.38;;;;;;;;;;5052120;28;20036;-57
2021/10/25 09:30:40;;;;;;;11.55;7.90;;;;;;;;;;5052457;28;20028;-57
2021/10/25 09:33:07;;;;;;;8.98;7.70;;;;;;;;;;5051957;28;20040;-57
2021/10/25 09:35:46;;;;;;;11.93;7.57;;;;;;;;;;5051956;28;20024;-57
2021/10/25 09:38:22;;;;;;;8.20;6.72;;;;;;;;;;5051676;28;20470;-57
2021/10/25 09:46:10;;;;;;;8.15;5.97;;;;;;;;;;5047633;28;20395;-57
2021/10/25 09:51:23;;;;;;;9.15;6.85;;;;;;;;;;5051472;28;20067;-55
2021/10/25 09:53:55;;;;;;;13.27;7.00;;;;;;;;;;5052299;28;20490;-57
2021/10/25 09:56:29;;;;;;;10.10;6.72;;;;;;;;;;5050125;28;20028;-58
2021/10/25 09:59:08;;;;;;;8.32;5.50;;;;;;;;;;5051805;28;20033;-57
2021/10/25 10:01:35;;;;;;;9.85;6.97;;;;;;;;;;5050813;28;20099;-57
2021/10/25 10:04:01;;;;;;;6.95;5.32;;;;;;;;;;5051841;28;20432;-57
2021/10/25 10:06:27;;;;;;;7.97;5.38;;;;;;;;;;5050902;28;20100;-57
2021/10/25 10:08:53;;;;;;;6.47;5.63;;;;;;;;;;5048993;28;20033;-57
2021/10/25 10:11:20;;;;;;;7.55;6.07;;;;;;;;;;5046031;28;20032;-57
2021/10/25 10:13:46;;;;;;;6.20;5.03;;;;;;;;;;5051599;28;20037;-57
2021/10/25 10:16:12;;;;;;;5.97;5.13;;;;;;;;;;5051475;28;20032;-58
2021/10/25 10:18:41;;;;;;;6.03;5.10;;;;;;;;;;5051292;28;20036;-57
2021/10/25 10:21:08;;;;;;;6.45;5.78;;;;;;;;;;5035356;28;20543;-57
2021/10/25 10:23:35;;;;;;;6.93;5.25;;;;;;;;;;5048379;28;20087;-57
2021/10/25 10:26:03;;;;;;;5.07;4.05;;;;;;;;;;5050431;28;20037;-57
2021/10/25 10:28:47;;;;;;;5.55;3.58;;;;;;;;;;5050960;28;20453;-58
2021/10/25 10:31:16;;;;;;;5.13;4.05;;;;;;;;;;5051232;28;20100;-57
2021/10/25 10:33:43;;;;;;;8.18;3.55;;;;;;;;;;5051534;28;20040;-57
2021/10/25 10:36:16;;;;;;;5.15;3.17;;;;;;;;;;5050568;28;20060;-57
2021/10/25 10:38:46;;;;;;;3.95;3.08;;;;;;;;;;5051654;28;20047;-57
2021/10/25 10:41:14;;;;;;;5.68;4.03;;;;;;;;;;5050558;28;20462;-57
2021/10/25 10:43:41;;;;;;;5.32;3.83;;;;;;;;;;5051305;28;20060;-57
2021/10/25 10:46:16;;;;;;;5.25;3.75;;;;;;;;;;5050952;28;20449;-58
2021/10/25 10:48:53;;;;;;;6.80;4.35;;;;;;;;;;5051671;28;20129;-58
2021/10/25 10:51:19;;;;;;;5.78;4.65;;;;;;;;;;5050363;28;20060;-58
2021/10/25 10:53:57;;;;;;;7.30;4.72;;;;;;;;;;5051765;28;20079;-58
2021/10/25 10:56:54;;;;;;;6.38;4.53;;;;;;;;;;5050292;28;20052;-58
2021/10/25 10:59:30;;;;;;;6.25;4.70;;;;;;;;;;5047678;28;20228;-57
2021/10/25 11:01:56;;;;;;;10.65;6.32;;;;;;;;;;5050440;28;20066;-58
2021/10/25 11:04:29;;;;;;;13.75;5.82;;;;;;;;;;5050698;28;20029;-58
2021/10/25 11:07:00;;;;;;;7.60;5.75;;;;;;;;;;5045509;28;20021;-58
2021/10/25 11:09:28;;;;;;;10.43;5.80;;;;;;;;;;5049500;28;20471;-58
2021/10/25 11:12:02;;;;;;;6.00;5.40;;;;;;;;;;5051244;28;20035;-58
2021/10/25 11:14:29;;;;;;;7.85;5.68;;;;;;;;;;5051275;28;20071;-58
2021/10/25 11:17:26;;;;;;;6.22;5.63;;;;;;;;;;5049064;28;20462;-58
2021/10/25 11:19:49;;;;;;;5.00;4.40;;;;;;;;;;5048146;28;20033;-58
2021/10/25 11:22:32;;;;;;;8.70;5.30;;;;;;;;;;5053712;28;20025;-58
2021/10/25 11:24:59;;;;;;;6.35;5.00;;;;;;;;;;5052969;28;20044;-58
2021/10/25 11:27:33;;;;;;;10.77;5.82;;;;;;;;;;5051856;28;20040;-58
2021/10/25 11:30:08;;;;;;;5.55;4.43;;;;;;;;;;5042334;28;20040;-58
2021/10/25 11:32:35;;;;;;;3.88;3.38;;;;;;;;;;5048975;28;20037;-58
2021/10/25 11:35:02;;;;;;;4.30;3.90;;;;;;;;;;5054039;28;20029;-57
2021/10/25 11:37:28;;;;;;;5.90;3.60;;;;;;;;;;5052802;28;20394;-57
2021/10/25 11:40:00;;;;;;;4.60;3.55;;;;;;;;;;5053973;28;20091;-58
2021/10/25 11:42:27;;;;;;;5.28;3.13;;;;;;;;;;5053235;28;20025;-58
2021/10/25 11:44:54;;;;;;;6.45;3.10;;;;;;;;;;5053980;28;20029;-58
2021/10/25 11:47:30;;;;;;;5.35;2.90;;;;;;;;;;5051339;28;20025;-58
2021/10/25 11:50:15;;;;;;;4.00;3.22;;;;;;;;;;5053745;28;20035;-58
2021/10/25 11:52:43;;;;;;;4.55;2.65;;;;;;;;;;5046929;28;20417;-58
2021/10/25 11:55:16;;;;;;;5.68;3.40;;;;;;;;;;5053154;28;20033;-59
2021/10/25 11:57:50;;;;;;;6.75;3.30;;;;;;;;;;5053249;28;20559;-58
2021/10/25 12:00:19;;;;;;;5.07;3.63;;;;;;;;;;5059620;28;20025;-58
2021/10/25 12:02:45;;;;;;;4.20;3.45;;;;;;;;;;5051961;28;20021;-58
2021/10/25 12:05:12;;;;;;;4.30;2.95;;;;;;;;;;5053264;28;20438;-58
2021/10/25 12:07:48;;;;;;;4.25;3.22;;;;;;;;;;5052478;28;20432;-58
2021/10/25 12:10:14;;;;;;;4.43;2.60;;;;;;;;;;5052751;28;20431;-58
2021/10/25 12:12:40;;;;;;;4.50;2.60;;;;;;;;;;5054263;28;20474;-58
2021/10/25 12:15:15;;;;;;;6.78;3.60;;;;;;;;;;5052105;28;20039;-58
2021/10/25 12:17:41;;;;;;;3.85;2.90;;;;;;;;;;5051711;28;20032;-58
2021/10/25 12:20:08;;;;;;;4.43;2.90;;;;;;;;;;5052647;28;20123;-58
2021/10/25 12:22:35;;;;;;;3.10;2.38;;;;;;;;;;5052779;28;20036;-57
2021/10/25 12:25:02;;;;;;;5.93;3.55;;;;;;;;;;5053028;28;20470;-57
2021/10/25 12:27:36;;;;;;;4.50;2.75;;;;;;;;;;5051448;28;20033;-58
2021/10/25 12:30:14;;;;;;;4.40;3.05;;;;;;;;;;5050873;28;20134;-58
2021/10/25 12:32:53;;;;;;;5.95;3.35;;;;;;;;;;5052550;28;20033;-58
2021/10/25 12:35:29;;;;;;;4.85;2.75;;;;;;;;;;5052495;28;20033;-58
2021/10/25 12:38:12;;;;;;;5.13;3.00;;;;;;;;;;5051955;28;20037;-58
2021/10/25 12:40:40;;;;;;;4.75;2.83;;;;;;;;;;5047861;28;20483;-59
2021/10/25 12:43:06;;;;;;;5.30;2.70;;;;;;;;;;5050018;28;20452;-59
2021/10/25 12:45:44;;;;;;;4.32;2.30;;;;;;;;;;5052833;28;20060;-59
2021/10/25 12:48:11;;;;;;;4.18;2.58;;;;;;;;;;5053500;28;20028;-58
2021/10/25 12:50:38;;;;;;;3.25;2.83;;;;;;;;;;5047698;28;20375;-58
2021/10/25 12:53:08;;;;;;;4.28;2.20;;;;;;;;;;5053165;28;20032;-58
2021/10/25 12:55:35;;;;;;;4.07;2.72;;;;;;;;;;5051841;28;20032;-58
2021/10/25 12:58:01;;;;;;;3.97;2.63;;;;;;;;;;5050796;28;20063;-58
2021/10/25 13:00:28;;;;;;;3.38;2.53;;;;;;;;;;5050567;28;20417;-58
2021/10/25 13:02:55;;;;;;;5.43;3.00;;;;;;;;;;5051861;28;20155;-58
2021/10/25 13:05:23;;;;;;;4.80;2.95;;;;;;;;;;5051009;28;20036;-58
2021/10/25 13:07:59;;;;;;;6.18;2.80;;;;;;;;;;5050112;28;20477;-58
2021/10/25 13:10:33;;;;;;;5.05;2.75;;;;;;;;;;5049907;28;20071;-58
2021/10/25 13:13:00;;;;;;;2.50;1.70;;;;;;;;;;5049289;28;20518;-58
2021/10/25 13:15:26;;;;;;;3.97;2.08;;;;;;;;;;5052019;28;20513;-58
2021/10/25 13:17:53;;;;;;;5.10;2.08;;;;;;;;;;5050776;28;20028;-58
2021/10/25 13:20:20;;;;;;;3.53;2.10;;;;;;;;;;5041118;28;20198;-58
2021/10/25 13:22:46;;;;;;;4.65;2.10;;;;;;;;;;5051114;28;20057;-58
2021/10/25 13:25:13;;;;;;;5.25;1.92;;;;;;;;;;5051393;28;20374;-58
2021/10/25 13:27:39;;;;;;;3.65;1.95;;;;;;;;;;5050806;28;20033;-57
2021/10/25 13:30:06;;;;;;;4.75;1.48;;;;;;;;;;5052765;28;20032;-58
2021/10/25 13:32:32;;;;;;;3.10;1.73;;;;;;;;;;5049997;28;20048;-58
2021/10/25 13:34:58;;;;;;;12.20;3.35;;;;;;;;;;5069599;28;20040;-59
2021/10/25 13:37:24;;;;;;;2.50;1.35;;;;;;;;;;5050991;28;20351;-59
2021/10/25 13:39:50;;;;;;;2.70;1.27;;;;;;;;;;5052277;28;20408;-59
2021/10/25 13:42:16;;;;;;;3.60;1.83;;;;;;;;;;5052140;28;20040;-59
2021/10/25 13:44:43;;;;;;;7.32;1.63;;;;;;;;;;5052136;28;20027;-59
2021/10/25 13:47:09;;;;;;;10.55;2.35;;;;;;;;;;5051790;28;20414;-59
2021/10/25 13:49:35;;;;;;;3.58;2.03;;;;;;;;;;5052342;28;20486;-59
2021/10/25 13:52:01;;;;;;;2.38;1.25;;;;;;;;;;5052664;28;20063;-59
2021/10/25 13:54:27;;;;;;;4.40;1.90;;;;;;;;;;5051350;28;20025;-58
2021/10/25 13:56:54;;;;;;;3.70;1.70;;;;;;;;;;5050320;28;20562;-59
2021/10/25 13:59:20;;;;;;;47.78;7.65;;;;;;;;;;5051544;28;20475;-59
2021/10/25 14:01:46;;;;;;;5.43;1.95;;;;;;;;;;5053114;28;20103;-59
2021/10/25 14:04:16;;;;;;;5.50;1.90;;;;;;;;;;5052049;28;20132;-59
2021/10/25 14:06:42;;;;;;;442.35;86.28;;;;;;;;;;5050483;28;20041;-58
2021/10/25 14:09:08;;;;;;;20.85;4.85;;;;;;;;;;5056033;28;20504;-59
2021/10/25 14:11:42;;;;;;;6.45;2.33;;;;;;;;;;5060602;28;20082;-59
2021/10/25 14:14:19;;;;;;;11.13;2.45;;;;;;;;;;5047200;28;20056;-59
2021/10/25 14:16:51;;;;;;;2.83;1.58;;;;;;;;;;5050909;28;20493;-59
2021/10/25 14:19:18;;;;;;;8.35;1.83;;;;;;;;;;5052270;28;20068;-59
2021/10/25 14:21:44;;;;;;;6.50;1.63;;;;;;;;;;5051522;28;20024;-59
2021/10/25 14:24:11;;;;;;;8.75;2.35;;;;;;;;;;5051263;28;20348;-59
2021/10/25 14:26:37;;;;;;;2.08;1.30;;;;;;;;;;5049310;28;20121;-59
2021/10/25 14:29:04;;;;;;;2.85;1.42;;;;;;;;;;5051556;28;20367;-58
2021/10/25 14:31:31;;;;;;;9.15;2.10;;;;;;;;;;5059030;28;20032;-59
2021/10/25 14:33:57;;;;;;;6.55;1.25;;;;;;;;;;5055143;28;20048;-59
2021/10/25 14:36:24;;;;;;;2.38;1.70;;;;;;;;;;5050355;28;20489;-59
2021/10/25 14:39:14;;;;;;;3.72;2.05;;;;;;;;;;5061543;28;20032;-59
2021/10/25 14:41:54;;;;;;;3.08;1.77;;;;;;;;;;5054512;28;20080;-59
2021/10/25 14:57:19;;;;;;;3.47;2.00;;;;;;;;;;5053095;28;20071;-59
2021/10/25 14:59:45;;;;;;;4.15;2.38;;;;;;;;;;5053656;28;20111;-59
2021/10/25 15:02:11;;;;;;;2.92;1.77;;;;;;;;;;5054702;28;20470;-59
2021/10/25 15:04:38;;;;;;;3.88;2.45;;;;;;;;;;5054851;28;20370;-58
2021/10/25 15:07:04;;;;;;;9.07;2.90;;;;;;;;;;5053467;28;20029;-59
2021/10/25 15:09:30;;;;;;;3.53;2.03;;;;;;;;;;5055599;28;20029;-59
2021/10/25 15:11:56;;;;;;;4.60;2.28;;;;;;;;;;5055118;28;20412;-59
2021/10/25 15:14:22;;;;;;;2.83;1.75;;;;;;;;;;5053621;28;20033;-59
2021/10/25 15:16:49;;;;;;;4.35;1.95;;;;;;;;;;5055040;28;20029;-59
2021/10/25 15:19:16;;;;;;;7.10;1.80;;;;;;;;;;5053922;28;20037;-59
2021/10/25 15:21:43;;;;;;;2.53;1.60;;;;;;;;;;5055311;28;20048;-59
2021/10/25 15:24:09;;;;;;;7.00;2.17;;;;;;;;;;5055120;28;20167;-58
2021/10/25 15:26:38;;;;;;;4.65;2.10;;;;;;;;;;5054107;28;20033;-59
2021/10/25 15:29:04;;;;;;;2.42;1.80;;;;;;;;;;5054974;28;20025;-59
2021/10/25 15:31:30;;;;;;;4.80;2.00;;;;;;;;;;5054277;28;20056;-59
2021/10/25 15:33:56;;;;;;;5.13;2.63;;;;;;;;;;5053168;28;20037;-58
2021/10/25 15:36:22;;;;;;;5.20;2.40;;;;;;;;;;5053917;28;20037;-59
2021/10/25 15:38:50;;;;;;;4.30;2.53;;;;;;;;;;5054863;28;20039;-59
2021/10/25 15:41:16;;;;;;;5.00;2.88;;;;;;;;;;5053262;28;20036;-59
2021/10/25 15:43:42;;;;;;;5.78;2.70;;;;;;;;;;5054499;28;20033;-59
2021/10/25 15:46:08;;;;;;;7.13;2.65;;;;;;;;;;5051801;28;20510;-59
2021/10/25 15:48:34;;;;;;;5.20;2.53;;;;;;;;;;5051041;28;20033;-59
2021/10/25 15:51:00;;;;;;;4.32;2.63;;;;;;;;;;5051490;28;20036;-59
2021/10/25 15:53:26;;;;;;;8.25;2.97;;;;;;;;;;5053219;28;20037;-59
2021/10/25 15:55:52;;;;;;;3.75;2.65;;;;;;;;;;5052870;28;20079;-59
2021/10/25 15:58:18;;;;;;;4.53;2.50;;;;;;;;;;5051717;28;20029;-59
2021/10/25 16:00:44;;;;;;;10.13;3.20;;;;;;;;;;5052520;28;20033;-59
2021/10/25 16:03:11;;;;;;;5.28;2.28;;;;;;;;;;5053031;28;20043;-59
2021/10/25 16:05:39;;;;;;;5.20;2.60;;;;;;;;;;5052715;28;20064;-59
2021/10/25 16:08:05;;;;;;;4.35;2.90;;;;;;;;;;5050454;28;20029;-59
2021/10/25 16:10:31;;;;;;;6.95;3.35;;;;;;;;;;5046852;28;20098;-59
2021/10/25 16:12:58;;;;;;;4.97;3.47;;;;;;;;;;5046306;28;20033;-59
2021/10/25 16:15:24;;;;;;;5.15;2.60;;;;;;;;;;5043298;28;20021;-59
2021/10/25 16:17:50;;;;;;;7.78;3.08;;;;;;;;;;5048629;28;20094;-59
2021/10/25 16:20:15;;;;;;;5.35;2.45;;;;;;;;;;5051758;28;20514;-59
2021/10/25 16:22:42;;;;;;;7.93;3.22;;;;;;;;;;5052376;28;20064;-57
2021/10/25 16:25:09;;;;;;;7.80;3.78;;;;;;;;;;5041764;28;20276;-57
2021/10/25 16:27:40;;;;;;;5.65;3.10;;;;;;;;;;5040366;28;20103;-58
2021/10/25 16:30:06;;;;;;;9.63;2.88;;;;;;;;;;5042072;28;20033;-57